createdAt,value
2023-03-27T00:00:03.769Z,5.50
2023-03-27T00:01:03.994Z,5.50
2023-03-27T00:02:04.346Z,5.44
2023-03-27T00:03:05.382Z,5.44
2023-03-27T00:04:04.527Z,5.44
2023-03-27T00:05:04.407Z,5.44
2023-03-27T00:06:03.515Z,5.44
2023-03-27T00:07:03.950Z,5.38
2023-03-27T00:08:03.692Z,5.38
2023-03-27T00:09:03.756Z,5.38
2023-03-27T00:10:03.826Z,5.31
2023-03-27T00:11:04.877Z,5.38
2023-03-27T00:12:04.062Z,5.31
2023-03-27T00:13:04.230Z,5.31
2023-03-27T00:14:04.227Z,5.31
2023-03-27T00:15:04.233Z,5.25
2023-03-27T00:16:04.224Z,5.25
2023-03-27T00:17:04.325Z,5.19
2023-03-27T00:18:04.447Z,5.19
2023-03-27T00:19:04.383Z,5.12
2023-03-27T00:20:04.391Z,5.12
2023-03-27T00:21:04.408Z,5.12
2023-03-27T00:22:04.384Z,5.06
2023-03-27T00:23:03.506Z,5.06
2023-03-27T00:24:03.509Z,5.06
2023-03-27T00:25:03.601Z,5.00
2023-03-27T00:26:03.753Z,5.00
2023-03-27T00:27:03.913Z,5.06
2023-03-27T00:28:04.001Z,5.00
2023-03-27T00:29:03.982Z,5.00
2023-03-27T00:30:04.099Z,4.94
2023-03-27T00:31:04.113Z,4.94
2023-03-27T00:32:04.069Z,4.88
2023-03-27T00:33:04.253Z,4.88
2023-03-27T00:34:04.065Z,4.88
2023-03-27T00:35:04.157Z,4.88
2023-03-27T00:36:04.447Z,4.81
2023-03-27T00:37:04.320Z,4.81
2023-03-27T00:38:04.400Z,4.81
2023-03-27T00:39:04.329Z,4.75
2023-03-27T00:40:04.384Z,4.75
2023-03-27T00:41:04.425Z,4.75
2023-03-27T00:42:03.515Z,4.75
2023-03-27T00:43:03.619Z,4.75
2023-03-27T00:44:03.683Z,4.75
2023-03-27T00:45:03.751Z,4.69
2023-03-27T00:46:03.763Z,4.69
2023-03-27T00:47:03.760Z,4.69
2023-03-27T00:48:03.861Z,4.69
2023-03-27T00:49:03.838Z,4.62
2023-03-27T00:50:03.868Z,4.62
2023-03-27T00:51:03.920Z,4.56
2023-03-27T00:52:03.917Z,4.56
2023-03-27T00:53:04.014Z,4.56
2023-03-27T00:54:04.004Z,4.56
2023-03-27T00:55:04.063Z,4.50
2023-03-27T00:56:04.062Z,4.50
2023-03-27T00:57:04.270Z,4.56
2023-03-27T00:58:04.230Z,4.56
2023-03-27T00:59:04.140Z,4.50
2023-03-27T01:00:04.335Z,4.50
2023-03-27T01:01:04.375Z,4.56
2023-03-27T01:02:04.321Z,4.50
2023-03-27T01:03:04.502Z,4.50
2023-03-27T01:04:04.311Z,4.50
2023-03-27T01:05:04.388Z,4.50
2023-03-27T01:06:04.466Z,4.50
2023-03-27T01:07:04.471Z,4.50
2023-03-27T01:08:04.379Z,4.50
2023-03-27T01:09:04.471Z,4.50
2023-03-27T01:10:04.486Z,4.50
2023-03-27T01:11:03.608Z,4.50
2023-03-27T01:12:03.664Z,4.44
2023-03-27T01:13:03.751Z,4.50
2023-03-27T01:14:03.827Z,4.50
2023-03-27T01:15:03.906Z,4.50
2023-03-27T01:16:03.970Z,4.50
2023-03-27T01:17:04.073Z,4.44
2023-03-27T01:18:04.067Z,4.44
2023-03-27T01:19:04.071Z,4.44
2023-03-27T01:20:04.242Z,4.44
2023-03-27T01:21:04.227Z,4.50
2023-03-27T01:22:03.592Z,4.50
2023-03-27T01:23:03.513Z,4.44
2023-03-27T01:24:03.521Z,4.44
2023-03-27T01:25:03.577Z,4.44
2023-03-27T01:26:03.663Z,4.44
2023-03-27T01:27:03.673Z,4.44
2023-03-27T01:28:03.694Z,4.44
2023-03-27T01:29:03.831Z,4.44
2023-03-27T01:30:03.828Z,4.44
2023-03-27T01:31:03.889Z,4.44
2023-03-27T01:32:03.901Z,4.38
2023-03-27T01:33:04.126Z,4.38
2023-03-27T01:34:04.073Z,4.38
2023-03-27T01:35:04.072Z,4.38
2023-03-27T01:36:04.103Z,4.31
2023-03-27T01:37:04.058Z,4.38
2023-03-27T01:38:04.149Z,4.38
2023-03-27T01:39:04.146Z,4.38
2023-03-27T01:40:04.059Z,4.31
2023-03-27T01:41:04.065Z,4.31
2023-03-27T01:42:04.149Z,4.31
2023-03-27T01:43:04.141Z,4.31
2023-03-27T01:44:04.222Z,4.38
2023-03-27T01:45:04.258Z,4.38
2023-03-27T01:46:04.314Z,4.38
2023-03-27T01:47:04.359Z,4.38
2023-03-27T01:48:04.363Z,4.38
2023-03-27T01:49:04.384Z,4.31
2023-03-27T01:50:03.496Z,4.31
2023-03-27T01:51:03.495Z,4.31
2023-03-27T01:52:03.580Z,4.38
2023-03-27T01:53:03.746Z,4.38
2023-03-27T01:54:03.660Z,4.38
2023-03-27T01:55:03.739Z,4.38
2023-03-27T01:56:03.744Z,4.38
2023-03-27T01:57:03.849Z,4.38
2023-03-27T01:58:03.825Z,4.31
2023-03-27T01:59:03.833Z,4.31
2023-03-27T02:00:17.754Z,4.31
2023-03-27T02:01:05.183Z,4.38
2023-03-27T02:02:03.916Z,4.31
2023-03-27T02:03:04.082Z,4.31
2023-03-27T02:04:04.061Z,4.31
2023-03-27T02:05:04.137Z,4.31
2023-03-27T02:06:04.136Z,4.31
2023-03-27T02:07:04.217Z,4.31
2023-03-27T02:08:04.224Z,4.25
2023-03-27T02:09:04.381Z,4.31
2023-03-27T02:10:04.468Z,4.31
2023-03-27T02:11:03.505Z,4.31
2023-03-27T02:12:03.504Z,4.31
2023-03-27T02:13:03.606Z,4.19
2023-03-27T02:14:03.763Z,4.19
2023-03-27T02:15:22.716Z,4.19
2023-03-27T02:16:04.017Z,4.19
2023-03-27T02:17:03.986Z,4.12
2023-03-27T02:18:04.082Z,4.12
2023-03-27T02:19:04.152Z,4.12
2023-03-27T02:20:04.146Z,4.19
2023-03-27T02:21:04.227Z,4.12
2023-03-27T02:22:04.145Z,4.12
2023-03-27T02:23:04.304Z,4.12
2023-03-27T02:24:04.336Z,4.12
2023-03-27T02:25:04.381Z,4.12
2023-03-27T02:26:03.515Z,4.06
2023-03-27T02:27:03.514Z,4.12
2023-03-27T02:28:03.522Z,4.12
2023-03-27T02:29:03.497Z,4.06
2023-03-27T02:30:03.507Z,4.12
2023-03-27T02:31:05.473Z,4.06
2023-03-27T02:32:03.832Z,4.06
2023-03-27T02:33:03.799Z,4.06
2023-03-27T02:34:03.910Z,4.06
2023-03-27T02:35:03.830Z,4.06
2023-03-27T02:36:03.893Z,4.06
2023-03-27T02:37:03.935Z,4.06
2023-03-27T02:38:03.833Z,4.00
2023-03-27T02:39:03.988Z,3.94
2023-03-27T02:40:03.899Z,3.94
2023-03-27T02:41:03.833Z,3.88
2023-03-27T02:42:03.931Z,3.88
2023-03-27T02:43:03.827Z,3.88
2023-03-27T02:44:03.912Z,3.88
2023-03-27T02:45:03.985Z,3.88
2023-03-27T02:46:04.125Z,3.88
2023-03-27T02:47:04.121Z,3.81
2023-03-27T02:48:04.151Z,3.81
2023-03-27T02:49:04.071Z,3.81
2023-03-27T02:50:04.073Z,3.81
2023-03-27T02:51:04.091Z,3.81
2023-03-27T02:52:04.083Z,3.81
2023-03-27T02:53:04.177Z,3.81
2023-03-27T02:54:04.025Z,3.81
2023-03-27T02:55:03.986Z,3.81
2023-03-27T02:56:04.067Z,3.75
2023-03-27T02:57:04.153Z,3.75
2023-03-27T02:58:04.025Z,3.69
2023-03-27T02:59:04.007Z,3.69
2023-03-27T03:00:04.097Z,3.69
2023-03-27T03:01:04.027Z,3.69
2023-03-27T03:02:03.927Z,3.69
2023-03-27T03:03:03.957Z,3.62
2023-03-27T03:04:03.843Z,3.62
2023-03-27T03:05:03.759Z,3.62
2023-03-27T03:06:03.752Z,3.69
2023-03-27T03:07:03.749Z,3.69
2023-03-27T03:08:03.685Z,3.69
2023-03-27T03:09:03.680Z,3.62
2023-03-27T03:10:03.750Z,3.62
2023-03-27T03:11:03.748Z,3.62
2023-03-27T03:12:03.766Z,3.62
2023-03-27T03:13:03.846Z,3.62
2023-03-27T03:14:03.761Z,3.62
2023-03-27T03:15:03.846Z,3.62
2023-03-27T03:16:03.922Z,3.62
2023-03-27T03:17:03.927Z,3.62
2023-03-27T03:18:03.978Z,3.62
2023-03-27T03:19:03.830Z,3.62
2023-03-27T03:20:03.921Z,3.62
2023-03-27T03:21:03.830Z,3.62
2023-03-27T03:22:03.999Z,3.62
2023-03-27T03:23:03.918Z,3.62
2023-03-27T03:24:04.171Z,3.62
2023-03-27T03:25:03.983Z,3.62
2023-03-27T03:26:03.995Z,3.56
2023-03-27T03:27:04.008Z,3.62
2023-03-27T03:28:03.906Z,3.62
2023-03-27T03:29:04.009Z,3.62
2023-03-27T03:30:03.988Z,3.62
2023-03-27T03:31:04.118Z,3.62
2023-03-27T03:32:03.903Z,3.62
2023-03-27T03:33:03.957Z,3.62
2023-03-27T03:34:03.833Z,3.62
2023-03-27T03:35:03.988Z,3.62
2023-03-27T03:36:03.951Z,3.62
2023-03-27T03:37:03.926Z,3.62
2023-03-27T03:38:03.859Z,3.62
2023-03-27T03:39:03.837Z,3.69
2023-03-27T03:40:03.918Z,3.62
2023-03-27T03:41:03.823Z,3.62
2023-03-27T03:42:03.741Z,3.62
2023-03-27T03:43:03.832Z,3.62
2023-03-27T03:44:03.993Z,3.62
2023-03-27T03:45:03.836Z,3.62
2023-03-27T03:46:03.972Z,3.62
2023-03-27T03:47:03.937Z,3.62
2023-03-27T03:48:04.016Z,3.62
2023-03-27T03:49:03.918Z,3.62
2023-03-27T03:50:03.903Z,3.69
2023-03-27T03:51:03.910Z,3.62
2023-03-27T03:52:04.836Z,3.62
2023-03-27T03:53:03.901Z,3.69
2023-03-27T03:54:03.909Z,3.69
2023-03-27T03:55:03.991Z,3.69
2023-03-27T03:56:03.985Z,3.69
2023-03-27T03:57:04.080Z,3.69
2023-03-27T03:58:03.907Z,3.69
2023-03-27T03:59:04.188Z,3.69
2023-03-27T04:00:04.143Z,3.69
2023-03-27T04:01:03.988Z,3.69
2023-03-27T04:02:04.106Z,3.69
2023-03-27T04:03:04.287Z,3.69
2023-03-27T04:04:04.096Z,3.62
2023-03-27T04:05:08.530Z,3.62
2023-03-27T04:06:04.177Z,3.62
2023-03-27T04:07:04.143Z,3.62
2023-03-27T04:08:04.157Z,3.62
2023-03-27T04:09:04.300Z,3.62
2023-03-27T04:10:04.314Z,3.69
2023-03-27T04:11:04.242Z,3.69
2023-03-27T04:12:04.279Z,3.69
2023-03-27T04:13:04.152Z,3.69
2023-03-27T04:14:04.221Z,3.62
2023-03-27T04:15:04.228Z,3.69
2023-03-27T04:16:04.183Z,3.69
2023-03-27T04:17:04.140Z,3.69
2023-03-27T04:18:04.388Z,3.62
2023-03-27T04:19:04.230Z,3.62
2023-03-27T04:20:04.143Z,3.62
2023-03-27T04:21:04.231Z,3.62
2023-03-27T04:22:04.139Z,3.62
2023-03-27T04:23:04.073Z,3.62
2023-03-27T04:24:04.059Z,3.56
2023-03-27T04:25:04.330Z,3.56
2023-03-27T04:26:03.566Z,3.62
2023-03-27T04:27:03.590Z,3.62
2023-03-27T04:28:03.586Z,3.62
2023-03-27T04:29:03.744Z,3.62
2023-03-27T04:30:03.609Z,3.62
2023-03-27T04:31:03.700Z,3.62
2023-03-27T04:32:03.757Z,3.62
2023-03-27T04:33:03.878Z,3.56
2023-03-27T04:34:03.745Z,3.56
2023-03-27T04:35:03.838Z,3.62
2023-03-27T04:36:05.781Z,3.56
2023-03-27T04:37:03.663Z,3.62
2023-03-27T04:38:03.593Z,3.62
2023-03-27T04:39:03.684Z,3.56
2023-03-27T04:40:03.711Z,3.62
2023-03-27T04:41:03.694Z,3.62
2023-03-27T04:42:03.757Z,3.56
2023-03-27T04:43:03.836Z,3.56
2023-03-27T04:44:03.747Z,3.56
2023-03-27T04:45:03.834Z,3.50
2023-03-27T04:46:03.916Z,3.50
2023-03-27T04:47:03.895Z,3.50
2023-03-27T04:48:03.825Z,3.50
2023-03-27T04:49:03.909Z,3.50
2023-03-27T04:50:03.836Z,3.44
2023-03-27T04:51:03.933Z,3.44
2023-03-27T04:52:03.929Z,3.44
2023-03-27T04:53:03.835Z,3.44
2023-03-27T04:54:03.911Z,3.44
2023-03-27T04:55:04.016Z,3.50
2023-03-27T04:56:03.990Z,3.44
2023-03-27T04:57:04.135Z,3.38
2023-03-27T04:58:03.988Z,3.38
2023-03-27T04:59:04.161Z,3.38
2023-03-27T05:00:04.070Z,3.38
2023-03-27T05:01:04.180Z,3.31
2023-03-27T05:02:04.243Z,3.31
2023-03-27T05:03:04.213Z,3.31
2023-03-27T05:04:04.308Z,3.31
2023-03-27T05:05:04.235Z,3.31
2023-03-27T05:06:04.341Z,3.38
2023-03-27T05:07:04.218Z,3.44
2023-03-27T05:08:04.319Z,3.50
2023-03-27T05:09:04.324Z,3.50
2023-03-27T05:10:04.315Z,3.50
2023-03-27T05:11:04.475Z,3.50
2023-03-27T05:12:04.403Z,3.44
2023-03-27T05:13:04.475Z,3.50
2023-03-27T05:14:04.475Z,3.81
2023-03-27T05:15:03.523Z,4.00
2023-03-27T05:16:03.528Z,4.12
2023-03-27T05:17:03.544Z,4.00
2023-03-27T05:18:03.573Z,3.94
2023-03-27T05:19:03.687Z,4.00
2023-03-27T05:20:03.597Z,3.88
2023-03-27T05:21:03.601Z,3.75
2023-03-27T05:22:03.593Z,3.69
2023-03-27T05:23:04.752Z,3.62
2023-03-27T05:24:04.230Z,3.69
2023-03-27T05:25:04.225Z,4.44
2023-03-27T05:26:04.392Z,4.81
2023-03-27T05:27:04.302Z,5.00
2023-03-27T05:28:04.245Z,5.12
2023-03-27T05:29:04.233Z,5.25
2023-03-27T05:30:04.265Z,5.19
2023-03-27T05:31:04.239Z,6.12
2023-03-27T05:32:04.234Z,6.50
2023-03-27T05:33:04.294Z,6.69
2023-03-27T05:34:04.146Z,6.50
2023-03-27T05:35:04.152Z,6.75
2023-03-27T05:36:04.332Z,6.94
2023-03-27T05:37:04.246Z,7.25
2023-03-27T05:38:04.175Z,7.38
2023-03-27T05:39:04.230Z,7.50
2023-03-27T05:40:04.183Z,7.56
2023-03-27T05:41:04.170Z,7.75
2023-03-27T05:42:04.175Z,7.94
2023-03-27T05:43:04.151Z,7.81
2023-03-27T05:44:04.085Z,7.81
2023-03-27T05:45:04.152Z,7.62
2023-03-27T05:46:04.219Z,7.56
2023-03-27T05:47:04.145Z,7.62
2023-03-27T05:48:04.325Z,7.56
2023-03-27T05:49:04.228Z,7.75
2023-03-27T05:50:04.235Z,7.69
2023-03-27T05:51:04.307Z,7.75
2023-03-27T05:52:04.333Z,7.62
2023-03-27T05:53:04.244Z,7.81
2023-03-27T05:54:04.318Z,7.94
2023-03-27T05:55:04.329Z,8.06
2023-03-27T05:56:04.308Z,8.06
2023-03-27T05:57:04.324Z,8.31
2023-03-27T05:58:04.395Z,8.12
2023-03-27T05:59:04.312Z,8.00
2023-03-27T06:00:04.280Z,7.88
2023-03-27T06:01:04.320Z,8.00
2023-03-27T06:02:04.514Z,8.00
2023-03-27T06:03:04.584Z,8.00
2023-03-27T06:04:04.535Z,8.25
2023-03-27T06:05:04.407Z,8.19
2023-03-27T06:06:03.606Z,8.31
2023-03-27T06:07:03.587Z,8.44
2023-03-27T06:08:03.835Z,8.38
2023-03-27T06:09:03.766Z,8.56
2023-03-27T06:10:03.828Z,8.56
2023-03-27T06:11:03.827Z,8.25
2023-03-27T06:12:03.918Z,8.38
2023-03-27T06:13:03.928Z,8.88
2023-03-27T06:14:03.908Z,9.12
2023-03-27T06:15:04.000Z,9.12
2023-03-27T06:16:03.861Z,9.12
2023-03-27T06:17:03.923Z,9.31
2023-03-27T06:18:03.901Z,9.12
2023-03-27T06:19:03.830Z,9.31
2023-03-27T06:20:03.827Z,9.31
2023-03-27T06:21:03.744Z,9.44
2023-03-27T06:22:03.902Z,9.88
2023-03-27T06:23:03.925Z,10.12
2023-03-27T06:24:04.009Z,10.38
2023-03-27T06:25:04.025Z,10.62
2023-03-27T06:26:03.924Z,10.75
2023-03-27T06:27:03.931Z,10.94
2023-03-27T06:28:03.753Z,11.31
2023-03-27T06:29:07.819Z,11.50
2023-03-27T06:30:03.911Z,11.62
2023-03-27T06:31:04.005Z,11.75
2023-03-27T06:32:03.914Z,11.81
2023-03-27T06:33:04.048Z,11.56
2023-03-27T06:34:03.916Z,11.56
2023-03-27T06:35:04.021Z,11.50
2023-03-27T06:36:04.030Z,11.56
2023-03-27T06:37:03.994Z,11.81
2023-03-27T06:38:04.098Z,12.00
2023-03-27T06:39:04.000Z,12.12
2023-03-27T06:40:04.253Z,12.25
2023-03-27T06:41:04.153Z,12.12
2023-03-27T06:42:04.147Z,12.19
2023-03-27T06:43:04.346Z,12.25
2023-03-27T06:44:04.156Z,12.25
2023-03-27T06:45:04.070Z,12.12
2023-03-27T06:46:04.186Z,12.19
2023-03-27T06:47:04.341Z,12.31
2023-03-27T06:48:17.141Z,12.44
2023-03-27T06:49:04.323Z,12.56
2023-03-27T06:50:04.395Z,12.69
2023-03-27T06:51:04.401Z,12.94
2023-03-27T06:52:04.436Z,13.06
2023-03-27T06:53:04.393Z,13.00
2023-03-27T06:54:03.597Z,13.12
2023-03-27T06:55:03.531Z,13.12
2023-03-27T06:56:03.576Z,13.19
2023-03-27T06:57:04.504Z,13.31
2023-03-27T06:58:04.417Z,13.31
2023-03-27T06:59:04.326Z,13.19
2023-03-27T07:00:04.325Z,13.12
2023-03-27T07:01:04.412Z,13.12
2023-03-27T07:02:04.421Z,13.12
2023-03-27T07:03:04.362Z,13.12
2023-03-27T07:04:04.320Z,13.31
2023-03-27T07:05:07.425Z,13.44
2023-03-27T07:06:04.445Z,13.38
2023-03-27T07:07:04.398Z,13.44
2023-03-27T07:08:15.050Z,13.75
2023-03-27T07:09:03.524Z,13.81
2023-03-27T07:10:03.678Z,13.81
2023-03-27T07:12:03.759Z,13.81
2023-03-27T07:13:03.841Z,13.69
2023-03-27T07:14:03.850Z,13.50
2023-03-27T07:15:03.994Z,13.56
2023-03-27T07:16:03.977Z,13.56
2023-03-27T07:17:04.079Z,13.94
2023-03-27T07:18:03.973Z,14.12
2023-03-27T07:19:04.026Z,14.38
2023-03-27T07:20:04.009Z,14.50
2023-03-27T07:21:03.912Z,14.62
2023-03-27T07:22:03.913Z,14.69
2023-03-27T07:23:04.151Z,14.75
2023-03-27T07:24:03.865Z,14.69
2023-03-27T07:25:03.907Z,14.75
2023-03-27T07:26:03.858Z,14.81
2023-03-27T07:27:03.837Z,14.44
2023-03-27T07:28:05.980Z,14.25
2023-03-27T07:29:03.748Z,14.12
2023-03-27T07:30:03.912Z,14.25
2023-03-27T07:31:06.619Z,14.31
2023-03-27T07:32:07.061Z,13.94
2023-03-27T07:33:04.023Z,13.44
2023-03-27T07:34:04.129Z,13.19
2023-03-27T07:35:04.072Z,12.88
2023-03-27T07:36:04.104Z,12.75
2023-03-27T07:37:03.996Z,12.56
2023-03-27T07:38:04.236Z,12.25
2023-03-27T07:39:03.678Z,12.12
2023-03-27T07:40:03.755Z,11.88
2023-03-27T07:41:03.756Z,11.75
2023-03-27T07:42:03.911Z,11.69
2023-03-27T07:43:03.837Z,11.56
2023-03-27T07:44:03.936Z,11.50
2023-03-27T07:45:04.611Z,11.38
2023-03-27T07:46:03.889Z,11.19
2023-03-27T07:47:03.849Z,11.19
2023-03-27T07:48:04.447Z,11.19
2023-03-27T07:49:04.402Z,11.12
2023-03-27T07:50:04.387Z,11.00
2023-03-27T07:51:13.170Z,10.94
2023-03-27T07:52:03.514Z,10.88
2023-03-27T07:53:03.604Z,10.75
2023-03-27T07:54:03.785Z,10.62
2023-03-27T07:55:03.681Z,10.44
2023-03-27T07:56:03.741Z,10.25
2023-03-27T07:57:03.804Z,10.19
2023-03-27T07:58:03.956Z,10.31
2023-03-27T07:59:03.679Z,10.38
2023-03-27T08:00:03.691Z,10.56
2023-03-27T08:01:03.842Z,10.69
2023-03-27T08:02:03.840Z,10.81
2023-03-27T08:03:04.050Z,11.00
2023-03-27T08:04:04.132Z,11.06
2023-03-27T08:05:03.909Z,10.88
2023-03-27T08:06:04.005Z,10.69
2023-03-27T08:07:03.912Z,10.56
2023-03-27T08:08:03.909Z,10.62
2023-03-27T08:09:04.082Z,10.81
2023-03-27T08:10:04.258Z,11.06
2023-03-27T08:11:04.250Z,11.12
2023-03-27T08:12:04.165Z,11.31
2023-03-27T08:13:03.599Z,11.25
2023-03-27T08:14:03.595Z,11.12
2023-03-27T08:15:03.512Z,10.94
2023-03-27T08:16:03.529Z,10.94
2023-03-27T08:17:14.939Z,11.06
2023-03-27T08:18:03.733Z,11.25
2023-03-27T08:19:03.603Z,11.44
2023-03-27T08:20:03.589Z,11.31
2023-03-27T08:21:03.624Z,11.25
2023-03-27T08:22:03.608Z,11.19
2023-03-27T08:23:03.590Z,11.12
2023-03-27T08:24:03.678Z,10.94
2023-03-27T08:25:03.597Z,10.75
2023-03-27T08:26:03.674Z,10.44
2023-03-27T08:27:03.595Z,10.19
2023-03-27T08:28:03.610Z,10.06
2023-03-27T08:29:03.587Z,9.94
2023-03-27T08:30:03.676Z,9.69
2023-03-27T08:31:03.687Z,9.69
2023-03-27T08:32:03.535Z,9.62
2023-03-27T08:33:03.698Z,9.50
2023-03-27T08:34:03.583Z,9.44
2023-03-27T08:35:03.679Z,9.31
2023-03-27T08:36:03.716Z,9.31
2023-03-27T08:37:03.514Z,9.25
2023-03-27T08:38:04.663Z,9.19
2023-03-27T08:39:03.509Z,9.00
2023-03-27T08:40:03.669Z,8.94
2023-03-27T08:41:03.599Z,8.94
2023-03-27T08:42:03.604Z,9.12
2023-03-27T08:43:03.614Z,9.19
2023-03-27T08:44:03.538Z,9.00
2023-03-27T08:45:03.683Z,8.88
2023-03-27T08:46:03.732Z,8.75
2023-03-27T08:47:03.577Z,8.62
2023-03-27T08:48:03.659Z,8.44
2023-03-27T08:49:03.588Z,8.25
2023-03-27T08:50:03.598Z,8.12
2023-03-27T08:51:03.682Z,8.00
2023-03-27T08:52:03.683Z,7.88
2023-03-27T08:53:03.667Z,7.75
2023-03-27T08:54:03.679Z,7.75
2023-03-27T08:55:03.672Z,7.62
2023-03-27T08:56:03.796Z,7.56
2023-03-27T08:57:03.784Z,7.56
2023-03-27T08:58:03.748Z,7.44
2023-03-27T08:59:03.773Z,7.44
2023-03-27T09:00:03.700Z,7.38
2023-03-27T09:01:03.764Z,7.31
2023-03-27T09:02:03.875Z,7.25
2023-03-27T09:03:03.877Z,7.12
2023-03-27T09:04:03.824Z,7.12
2023-03-27T09:05:03.783Z,7.00
2023-03-27T09:06:03.757Z,7.00
2023-03-27T09:07:03.643Z,6.94
2023-03-27T09:08:03.835Z,6.94
2023-03-27T09:09:03.671Z,6.88
2023-03-27T09:10:03.777Z,6.81
2023-03-27T09:11:03.853Z,6.81
2023-03-27T09:12:03.861Z,6.81
2023-03-27T09:13:03.773Z,6.75
2023-03-27T09:14:03.841Z,6.69
2023-03-27T09:15:03.751Z,6.69
2023-03-27T09:16:03.759Z,6.62
2023-03-27T09:17:03.832Z,6.62
2023-03-27T09:18:03.908Z,6.56
2023-03-27T09:19:03.919Z,6.62
2023-03-27T09:20:03.912Z,6.62
2023-03-27T09:21:04.794Z,6.69
2023-03-27T09:22:03.840Z,6.75
2023-03-27T09:23:03.867Z,6.75
2023-03-27T09:24:03.915Z,6.75
2023-03-27T09:25:03.998Z,6.69
2023-03-27T09:26:03.918Z,6.69
2023-03-27T09:27:07.402Z,6.69
2023-03-27T09:28:04.112Z,6.69
2023-03-27T09:29:04.010Z,6.69
2023-03-27T09:30:04.801Z,6.62
2023-03-27T09:31:04.119Z,6.62
2023-03-27T09:32:04.084Z,6.62
2023-03-27T09:33:04.118Z,6.56
2023-03-27T09:34:03.994Z,6.56
2023-03-27T09:35:04.072Z,6.62
2023-03-27T09:36:04.114Z,6.62
2023-03-27T09:37:04.155Z,6.62
2023-03-27T09:38:04.130Z,6.62
2023-03-27T09:39:04.145Z,6.62
2023-03-27T09:40:04.151Z,6.56
2023-03-27T09:41:04.092Z,6.50
2023-03-27T09:42:06.817Z,6.50
2023-03-27T09:43:04.078Z,6.44
2023-03-27T09:44:04.233Z,6.50
2023-03-27T09:45:04.073Z,6.50
2023-03-27T09:46:04.233Z,6.44
2023-03-27T09:47:04.286Z,6.44
2023-03-27T09:48:04.304Z,6.50
2023-03-27T09:49:04.231Z,6.56
2023-03-27T09:50:04.157Z,6.56
2023-03-27T09:51:04.152Z,6.56
2023-03-27T09:52:04.152Z,6.62
2023-03-27T09:53:04.073Z,6.62
2023-03-27T09:54:04.144Z,6.69
2023-03-27T09:55:04.176Z,6.69
2023-03-27T09:56:04.170Z,6.69
2023-03-27T09:57:04.108Z,6.69
2023-03-27T09:58:03.998Z,6.69
2023-03-27T09:59:04.101Z,6.69
2023-03-27T10:00:04.160Z,6.75
2023-03-27T10:01:04.197Z,6.75
2023-03-27T10:02:04.895Z,6.75
2023-03-27T10:03:04.272Z,6.75
2023-03-27T10:04:04.319Z,6.75
2023-03-27T10:05:04.269Z,6.69
2023-03-27T10:06:04.249Z,6.62
2023-03-27T10:07:04.313Z,6.56
2023-03-27T10:08:04.326Z,6.56
2023-03-27T10:09:04.390Z,6.50
2023-03-27T10:10:04.483Z,6.44
2023-03-27T10:11:04.479Z,6.44
2023-03-27T10:12:04.475Z,6.44
2023-03-27T10:13:04.473Z,6.38
2023-03-27T10:14:03.515Z,6.38
2023-03-27T10:15:04.479Z,6.31
2023-03-27T10:16:03.565Z,6.31
2023-03-27T10:17:03.575Z,6.31
2023-03-27T10:18:03.561Z,6.31
2023-03-27T10:19:03.589Z,6.31
2023-03-27T10:20:03.704Z,6.38
2023-03-27T10:21:03.669Z,6.31
2023-03-27T10:22:03.600Z,6.31
2023-03-27T10:23:03.651Z,6.31
2023-03-27T10:24:03.552Z,6.25
2023-03-27T10:25:03.605Z,6.19
2023-03-27T10:26:03.525Z,6.19
2023-03-27T10:27:03.506Z,6.19
2023-03-27T10:28:03.618Z,6.19
2023-03-27T10:29:03.510Z,6.19
2023-03-27T10:30:03.602Z,6.19
2023-03-27T10:31:03.586Z,6.19
2023-03-27T10:32:03.609Z,6.19
2023-03-27T10:33:03.662Z,6.25
2023-03-27T10:34:03.591Z,6.25
2023-03-27T10:35:03.535Z,6.25
2023-03-27T10:36:03.702Z,6.25
2023-03-27T10:37:03.512Z,6.31
2023-03-27T10:38:03.592Z,6.31
2023-03-27T10:39:03.596Z,6.38
2023-03-27T10:40:04.478Z,6.38
2023-03-27T10:41:03.599Z,6.38
2023-03-27T10:42:03.603Z,6.38
2023-03-27T10:43:03.589Z,6.44
2023-03-27T10:44:03.504Z,6.50
2023-03-27T10:45:03.507Z,6.50
2023-03-27T10:46:03.561Z,6.56
2023-03-27T10:47:03.765Z,6.56
2023-03-27T10:48:03.637Z,6.56
2023-03-27T10:49:03.582Z,6.56
2023-03-27T10:50:03.592Z,6.56
2023-03-27T10:51:03.598Z,6.56
2023-03-27T10:52:03.603Z,6.50
2023-03-27T10:53:03.625Z,6.50
2023-03-27T10:54:03.555Z,6.50
2023-03-27T10:55:03.505Z,6.50
2023-03-27T10:56:04.387Z,6.50
2023-03-27T10:57:03.536Z,6.56
2023-03-27T10:58:03.718Z,6.56
2023-03-27T10:59:03.665Z,6.56
2023-03-27T11:00:03.585Z,6.56
2023-03-27T11:01:03.783Z,6.62
2023-03-27T11:02:03.585Z,6.62
2023-03-27T11:03:03.594Z,6.62
2023-03-27T11:04:03.710Z,6.69
2023-03-27T11:05:03.668Z,6.69
2023-03-27T11:06:03.583Z,6.69
2023-03-27T11:07:03.588Z,6.69
2023-03-27T11:08:03.692Z,6.75
2023-03-27T11:09:03.674Z,6.75
2023-03-27T11:10:03.748Z,6.75
2023-03-27T11:11:03.768Z,6.81
2023-03-27T11:12:03.680Z,6.81
2023-03-27T11:13:03.668Z,6.88
2023-03-27T11:14:03.802Z,6.88
2023-03-27T11:15:03.653Z,6.81
2023-03-27T11:16:03.666Z,6.81
2023-03-27T11:17:03.737Z,6.81
2023-03-27T11:18:03.652Z,6.81
2023-03-27T11:19:03.598Z,6.81
2023-03-27T11:20:03.516Z,6.88
2023-03-27T11:21:04.475Z,6.94
2023-03-27T11:22:04.507Z,7.00
2023-03-27T11:23:04.389Z,7.06
2023-03-27T11:24:04.492Z,7.12
2023-03-27T11:25:04.405Z,7.19
2023-03-27T11:26:03.513Z,7.25
2023-03-27T11:27:04.500Z,7.25
2023-03-27T11:28:04.475Z,7.31
2023-03-27T11:29:04.456Z,7.38
2023-03-27T11:30:03.589Z,7.38
2023-03-27T11:31:12.054Z,7.38
2023-03-27T11:32:03.598Z,7.31
2023-03-27T11:33:03.545Z,7.25
2023-03-27T11:34:04.548Z,7.25
2023-03-27T11:35:04.321Z,7.25
2023-03-27T11:36:04.440Z,7.25
2023-03-27T11:37:04.456Z,7.19
2023-03-27T11:38:04.379Z,7.19
2023-03-27T11:39:04.484Z,7.12
2023-03-27T11:40:04.459Z,7.06
2023-03-27T11:41:04.380Z,7.00
2023-03-27T11:42:03.521Z,7.00
2023-03-27T11:43:03.505Z,7.00
2023-03-27T11:44:03.589Z,7.06
2023-03-27T11:45:03.583Z,7.00
2023-03-27T11:46:03.705Z,7.00
2023-03-27T11:47:03.641Z,6.88
2023-03-27T11:48:03.612Z,6.88
2023-03-27T11:49:03.670Z,6.81
2023-03-27T11:50:03.597Z,6.81
2023-03-27T11:51:03.591Z,6.88
2023-03-27T11:52:03.592Z,6.88
2023-03-27T11:53:03.592Z,6.94
2023-03-27T11:54:03.596Z,6.94
2023-03-27T11:55:03.596Z,6.94
2023-03-27T11:56:03.674Z,6.94
2023-03-27T11:57:03.736Z,6.94
2023-03-27T11:58:03.686Z,6.94
2023-03-27T11:59:03.666Z,6.94
2023-03-27T12:00:03.632Z,6.88
2023-03-27T12:01:03.588Z,6.88
2023-03-27T12:02:03.695Z,6.81
2023-03-27T12:03:03.593Z,6.75
2023-03-27T12:04:03.767Z,6.75
2023-03-27T12:05:03.585Z,6.75
2023-03-27T12:06:03.664Z,6.69
2023-03-27T12:07:04.764Z,6.69
2023-03-27T12:08:03.754Z,6.69
2023-03-27T12:09:03.673Z,6.62
2023-03-27T12:10:03.674Z,6.56
2023-03-27T12:11:03.742Z,6.56
2023-03-27T12:12:03.656Z,6.50
2023-03-27T12:13:03.825Z,6.50
2023-03-27T12:14:07.067Z,6.50
2023-03-27T12:15:03.750Z,6.50
2023-03-27T12:16:03.785Z,6.56
2023-03-27T12:17:03.917Z,6.56
2023-03-27T12:18:03.958Z,6.56
2023-03-27T12:19:08.337Z,6.56
2023-03-27T12:20:03.829Z,6.56
2023-03-27T12:21:04.037Z,6.56
2023-03-27T12:22:07.197Z,6.62
2023-03-27T12:23:03.827Z,6.62
2023-03-27T12:24:03.911Z,6.62
2023-03-27T12:25:03.826Z,6.62
2023-03-27T12:26:03.837Z,6.62
2023-03-27T12:27:04.241Z,6.62
2023-03-27T12:28:03.898Z,6.62
2023-03-27T12:29:03.918Z,6.62
2023-03-27T12:30:03.998Z,6.62
2023-03-27T12:31:03.907Z,6.62
2023-03-27T12:32:03.940Z,6.69
2023-03-27T12:33:04.096Z,6.69
2023-03-27T12:34:03.990Z,6.75
2023-03-27T12:35:03.992Z,6.81
2023-03-27T12:36:04.008Z,6.88
2023-03-27T12:37:03.910Z,6.88
2023-03-27T12:38:03.915Z,6.94
2023-03-27T12:39:04.008Z,7.06
2023-03-27T12:40:04.012Z,7.12
2023-03-27T12:41:04.060Z,7.19
2023-03-27T12:42:03.984Z,7.25
2023-03-27T12:43:04.154Z,7.25
2023-03-27T12:44:04.156Z,7.25
2023-03-27T12:45:04.242Z,7.38
2023-03-27T12:46:04.459Z,7.38
2023-03-27T12:47:04.384Z,7.44
2023-03-27T12:48:04.440Z,7.50
2023-03-27T12:49:04.307Z,7.56
2023-03-27T12:50:04.378Z,7.56
2023-03-27T12:51:04.470Z,7.56
2023-03-27T12:52:04.479Z,7.56
2023-03-27T12:53:03.541Z,7.56
2023-03-27T12:54:03.516Z,7.56
2023-03-27T12:55:03.587Z,7.62
2023-03-27T12:56:03.575Z,7.62
2023-03-27T12:57:03.588Z,7.62
2023-03-27T12:58:03.700Z,7.62
2023-03-27T12:59:05.587Z,7.62
2023-03-27T13:00:03.614Z,7.62
2023-03-27T13:01:03.674Z,7.62
2023-03-27T13:02:03.833Z,7.56
2023-03-27T13:03:03.851Z,7.56
2023-03-27T13:04:03.902Z,7.56
2023-03-27T13:05:06.797Z,7.56
2023-03-27T13:06:03.924Z,7.56
2023-03-27T13:07:03.990Z,7.56
2023-03-27T13:08:03.999Z,7.56
2023-03-27T13:09:04.065Z,7.50
2023-03-27T13:10:04.150Z,7.56
2023-03-27T13:11:04.178Z,7.62
2023-03-27T13:12:04.160Z,7.69
2023-03-27T13:13:04.064Z,7.69
2023-03-27T13:14:04.145Z,7.75
2023-03-27T13:15:04.232Z,7.81